createdAt,value
2019-05-28T00:00:09.562Z,16.12
2019-05-28T00:02:40.439Z,16.15
2019-05-28T00:05:09.894Z,16.65
2019-05-28T00:07:39.140Z,16.60
2019-05-28T00:10:08.451Z,16.67
2019-05-28T00:12:37.891Z,16.32
2019-05-28T00:15:08.904Z,17.52
2019-05-28T00:17:38.559Z,17.85
2019-05-28T00:20:08.515Z,18.52
2019-05-28T00:22:37.781Z,17.17
2019-05-28T00:25:06.995Z,17.35
2019-05-28T00:27:36.277Z,17.77
2019-05-28T00:30:19.055Z,17.77
2019-05-28T00:32:38.196Z,16.52
2019-05-28T00:35:07.725Z,16.65
2019-05-28T00:37:36.998Z,16.82
2019-05-28T00:40:06.290Z,17.35
2019-05-28T00:42:35.611Z,17.45
2019-05-28T00:45:07.365Z,16.80
2019-05-28T00:47:36.621Z,17.45
2019-05-28T00:50:07.265Z,17.07
2019-05-28T00:52:36.453Z,16.55
2019-05-28T00:55:07.191Z,16.05
2019-05-28T00:57:36.456Z,17.90
2019-05-28T01:00:06.581Z,16.67
2019-05-28T01:02:35.851Z,15.93
2019-05-28T01:05:06.272Z,14.75
2019-05-28T01:07:35.540Z,17.15
2019-05-28T01:10:06.478Z,15.93
2019-05-28T01:12:35.746Z,15.18
2019-05-28T01:15:07.892Z,15.70
2019-05-28T01:17:37.527Z,17.25
2019-05-28T01:20:07.225Z,17.48
2019-05-28T01:22:36.501Z,18.30
2019-05-28T01:25:07.505Z,19.17
2019-05-28T01:27:37.855Z,18.57
2019-05-28T01:30:07.745Z,17.10
2019-05-28T01:32:36.971Z,17.25
2019-05-28T01:35:25.619Z,15.78
2019-05-28T01:37:54.930Z,14.87
2019-05-28T01:40:24.189Z,14.83
2019-05-28T01:42:53.467Z,13.48
2019-05-28T01:45:22.734Z,14.65
2019-05-28T01:47:52.027Z,15.48
2019-05-28T01:50:21.652Z,16.42
2019-05-28T01:52:51.017Z,14.83
2019-05-28T01:55:20.300Z,15.50
2019-05-28T01:57:49.820Z,16.42
2019-05-28T02:00:19.091Z,16.55
2019-05-28T02:02:48.381Z,16.65
2019-05-28T02:05:18.294Z,18.35
2019-05-28T02:07:47.579Z,16.37
2019-05-28T02:10:16.912Z,16.42
2019-05-28T02:12:46.165Z,13.65
2019-05-28T02:15:15.485Z,12.78
2019-05-28T02:17:45.943Z,12.75
2019-05-28T02:20:15.243Z,13.80
2019-05-28T02:22:44.588Z,13.83
2019-05-28T02:25:13.782Z,12.58
2019-05-28T02:27:43.018Z,12.40
2019-05-28T02:30:13.913Z,11.28
2019-05-28T02:32:43.172Z,12.40
2019-05-28T02:35:13.807Z,12.28
2019-05-28T02:37:43.086Z,11.15
2019-05-28T02:40:12.517Z,11.33
2019-05-28T02:42:41.790Z,12.23
2019-05-28T02:45:11.164Z,12.50
2019-05-28T02:47:40.495Z,12.00
2019-05-28T02:50:09.964Z,13.68
2019-05-28T02:52:40.087Z,11.38
2019-05-28T02:55:09.618Z,12.82
2019-05-28T02:57:40.341Z,13.30
2019-05-28T03:00:11.722Z,12.75
2019-05-28T03:02:42.130Z,10.98
2019-05-28T03:05:11.440Z,11.50
2019-05-28T03:07:41.969Z,12.25
2019-05-28T03:10:12.618Z,12.50
2019-05-28T03:12:41.829Z,11.95
2019-05-28T03:15:11.146Z,11.12
2019-05-28T03:17:40.566Z,11.93
2019-05-28T03:20:09.866Z,12.23
2019-05-28T03:22:39.132Z,11.90
2019-05-28T03:25:08.411Z,11.63
2019-05-28T03:27:37.688Z,12.18
2019-05-28T03:30:06.977Z,12.30
2019-05-28T03:32:36.245Z,12.88
2019-05-28T03:35:07.144Z,12.35
2019-05-28T03:37:36.443Z,13.95
2019-05-28T03:40:06.871Z,12.80
2019-05-28T03:42:36.069Z,11.65
2019-05-28T03:45:06.542Z,12.33
2019-05-28T03:47:35.814Z,11.18
2019-05-28T03:50:06.614Z,12.40
2019-05-28T03:52:35.809Z,11.78
2019-05-28T03:55:06.912Z,12.63
2019-05-28T03:57:36.310Z,12.63
2019-05-28T04:00:05.997Z,12.75
2019-05-28T04:02:35.283Z,12.47
2019-05-28T04:05:05.033Z,12.55
2019-05-28T04:07:35.278Z,12.88
2019-05-28T04:10:05.726Z,11.80
2019-05-28T04:12:35.025Z,12.47
2019-05-28T04:15:09.983Z,12.30
2019-05-28T04:17:41.946Z,11.40
2019-05-28T04:20:11.209Z,13.05
2019-05-28T04:22:40.505Z,12.90
2019-05-28T04:25:10.144Z,13.08
2019-05-28T04:27:40.485Z,12.37
2019-05-28T04:30:09.839Z,13.20
2019-05-28T04:32:41.126Z,13.13
2019-05-28T04:35:10.026Z,13.20
2019-05-28T04:37:39.303Z,12.98
2019-05-28T04:40:08.599Z,12.37
2019-05-28T04:42:37.906Z,12.40
2019-05-28T04:45:07.891Z,12.85
2019-05-28T04:47:37.107Z,12.80
2019-05-28T04:50:06.751Z,13.00
2019-05-28T04:52:36.037Z,13.50
2019-05-28T04:55:05.299Z,12.70
2019-05-28T04:57:34.563Z,12.98
2019-05-28T05:00:08.176Z,12.80
2019-05-28T05:02:37.509Z,12.37
2019-05-28T05:05:07.410Z,13.80
2019-05-28T05:07:39.563Z,13.10
2019-05-28T05:10:08.818Z,12.53
2019-05-28T05:12:38.115Z,12.30
2019-05-28T05:15:07.655Z,12.85
2019-05-28T05:17:37.063Z,12.10
2019-05-28T05:20:06.722Z,11.65
2019-05-28T05:22:36.793Z,12.00
2019-05-28T05:25:06.444Z,11.03
2019-05-28T05:27:35.661Z,10.78
2019-05-28T05:30:06.127Z,11.28
2019-05-28T05:32:35.340Z,11.45
2019-05-28T05:35:05.729Z,11.08
2019-05-28T05:37:35.011Z,9.13
2019-05-28T05:40:06.030Z,9.68
2019-05-28T05:42:35.332Z,9.23
2019-05-28T05:45:07.628Z,8.18
2019-05-28T05:47:37.352Z,8.48
2019-05-28T05:50:07.129Z,7.60
2019-05-28T05:52:36.402Z,8.60
2019-05-28T05:55:08.634Z,7.62
2019-05-28T05:57:37.846Z,7.33
2019-05-28T06:00:10.784Z,7.35
2019-05-28T06:02:38.162Z,7.75
2019-05-28T06:05:07.417Z,8.05
2019-05-28T06:07:36.733Z,7.60
2019-05-28T06:10:07.109Z,6.87
2019-05-28T06:12:36.370Z,10.68
2019-05-28T06:15:08.327Z,7.47
2019-05-28T06:17:37.623Z,8.33
2019-05-28T06:20:07.650Z,6.45
2019-05-28T06:22:36.994Z,5.85
2019-05-28T06:25:06.578Z,5.45
2019-05-28T06:27:35.890Z,5.50
2019-05-28T06:30:08.082Z,6.80
2019-05-28T06:32:38.548Z,6.83
2019-05-28T06:35:08.098Z,12.85
2019-05-28T06:37:37.394Z,11.20
2019-05-28T06:40:08.118Z,14.98
2019-05-28T06:42:39.655Z,9.23
2019-05-28T06:45:08.293Z,9.75
2019-05-28T06:47:37.668Z,6.47
2019-05-28T06:50:11.392Z,7.83
2019-05-28T06:52:41.360Z,9.43
2019-05-28T06:55:10.640Z,7.62
2019-05-28T06:57:39.968Z,8.18
2019-05-28T07:00:09.475Z,8.50
2019-05-28T07:02:38.812Z,7.33
2019-05-28T07:05:08.075Z,8.05
2019-05-28T07:07:38.439Z,10.00
2019-05-28T07:10:08.297Z,12.73
2019-05-28T07:12:37.572Z,9.63
2019-05-28T07:15:07.042Z,10.95
2019-05-28T07:17:36.656Z,10.78
2019-05-28T07:20:08.814Z,10.18
2019-05-28T07:25:07.675Z,9.60
2019-05-28T07:27:36.943Z,8.88
2019-05-28T07:30:06.711Z,9.58
2019-05-28T07:32:36.298Z,10.78
2019-05-28T07:35:06.131Z,8.35
2019-05-28T07:37:36.586Z,9.28
2019-05-28T07:40:06.863Z,11.78
2019-05-28T07:42:36.214Z,8.53
2019-05-28T07:45:06.125Z,8.30
2019-05-28T07:47:35.414Z,8.90
2019-05-28T07:50:06.761Z,10.50
2019-05-28T07:52:35.967Z,32.55
2019-05-28T07:55:05.263Z,13.05
2019-05-28T07:57:34.537Z,11.55
2019-05-28T08:00:05.938Z,11.45
2019-05-28T08:02:35.407Z,12.85
2019-05-28T08:05:06.332Z,9.95
2019-05-28T08:07:35.582Z,9.40
2019-05-28T08:10:06.831Z,12.68
2019-05-28T08:12:36.069Z,11.50
2019-05-28T08:15:05.941Z,10.15
2019-05-28T08:17:35.287Z,10.05
2019-05-28T08:20:05.740Z,9.60
2019-05-28T08:22:42.229Z,10.35
2019-05-28T08:25:23.644Z,10.20
2019-05-28T08:27:37.739Z,26.55
2019-05-28T08:30:07.499Z,9.25
2019-05-28T08:32:36.801Z,8.00
2019-05-28T08:35:06.795Z,9.83
2019-05-28T08:37:36.016Z,9.03
2019-05-28T08:40:08.315Z,11.05
2019-05-28T08:42:37.710Z,9.70
2019-05-28T08:45:07.290Z,9.80
2019-05-28T08:47:36.568Z,9.45
2019-05-28T08:50:08.541Z,9.45
2019-05-28T08:52:37.753Z,10.30
2019-05-28T08:55:07.114Z,10.40
2019-05-28T08:57:36.538Z,17.02
2019-05-28T09:00:10.516Z,11.25
2019-05-28T09:02:40.109Z,10.45
2019-05-28T09:05:25.076Z,9.88
2019-05-28T09:07:40.278Z,11.03
2019-05-28T09:10:09.566Z,10.23
2019-05-28T09:12:38.847Z,9.48
2019-05-28T09:15:08.131Z,15.35
2019-05-28T09:17:37.405Z,11.38
2019-05-28T09:20:07.113Z,11.85
2019-05-28T09:22:36.334Z,13.32
2019-05-28T09:25:06.694Z,14.40
2019-05-28T09:27:36.051Z,13.58
2019-05-28T09:30:09.306Z,14.40
2019-05-28T09:35:07.921Z,15.32
2019-05-28T09:37:38.177Z,19.77
2019-05-28T09:40:07.509Z,14.15
2019-05-28T09:42:36.793Z,13.98
2019-05-28T09:45:22.093Z,14.65
2019-05-28T09:47:38.230Z,15.13
2019-05-28T09:50:26.949Z,15.32
2019-05-28T09:52:52.976Z,16.35
2019-05-28T09:55:09.591Z,15.38
2019-05-28T09:57:47.249Z,16.70
2019-05-28T10:00:17.142Z,26.62
2019-05-28T10:02:47.560Z,19.37
2019-05-28T10:05:16.815Z,19.32
2019-05-28T10:07:46.099Z,20.45
2019-05-28T10:10:15.388Z,21.00
2019-05-28T10:12:45.637Z,22.35
2019-05-28T10:15:14.921Z,22.95
2019-05-28T10:17:44.219Z,21.80
2019-05-28T10:20:13.948Z,24.10
2019-05-28T10:22:43.229Z,21.77
2019-05-28T10:25:12.514Z,21.15
2019-05-28T10:27:59.542Z,20.72
2019-05-28T10:30:12.893Z,20.75
2019-05-28T10:32:42.204Z,21.65
2019-05-28T10:35:13.399Z,19.60
2019-05-28T10:37:42.687Z,20.05
2019-05-28T10:40:11.987Z,19.32
2019-05-28T10:42:41.259Z,19.55
2019-05-28T10:45:10.993Z,17.10
2019-05-28T10:47:40.334Z,18.50
2019-05-28T10:50:09.580Z,18.82
2019-05-28T10:52:38.926Z,22.35
2019-05-28T10:55:08.224Z,18.67
2019-05-28T10:57:37.527Z,20.77
2019-05-28T11:00:07.932Z,21.95
2019-05-28T11:02:40.199Z,21.62
2019-05-28T11:05:09.430Z,21.62
2019-05-28T11:07:38.784Z,22.13
2019-05-28T11:10:23.367Z,19.95
2019-05-28T11:12:39.555Z,20.85
2019-05-28T11:15:09.813Z,20.55
2019-05-28T11:17:39.088Z,21.20
2019-05-28T11:20:08.452Z,22.82
2019-05-28T11:22:37.903Z,19.73
2019-05-28T11:25:07.141Z,12.45
2019-05-28T11:27:36.485Z,9.68
2019-05-28T11:30:08.992Z,7.95
2019-05-28T11:32:38.278Z,8.20
2019-05-28T11:35:07.559Z,7.22
2019-05-28T11:37:36.833Z,7.42
2019-05-28T11:40:09.420Z,7.78
2019-05-28T11:42:38.622Z,8.00
2019-05-28T11:45:08.683Z,6.65
2019-05-28T11:47:37.933Z,7.15
2019-05-28T11:50:09.748Z,8.50
2019-05-28T11:52:39.070Z,7.17
2019-05-28T11:55:12.314Z,6.97
2019-05-28T12:00:10.176Z,6.97
2019-05-28T12:02:39.452Z,7.40
2019-05-28T12:05:09.303Z,7.40
2019-05-28T12:07:38.584Z,7.60
2019-05-28T12:10:08.191Z,7.72
2019-05-28T12:12:38.831Z,7.28
2019-05-28T12:15:10.625Z,7.42
2019-05-28T12:17:44.578Z,6.45
2019-05-28T12:20:13.236Z,8.03
2019-05-28T12:22:43.079Z,7.65
2019-05-28T12:25:12.535Z,7.37
2019-05-28T12:27:41.812Z,7.17
2019-05-28T12:30:12.853Z,6.95
2019-05-28T12:32:42.123Z,6.83
2019-05-28T12:35:26.262Z,6.97
2019-05-28T12:37:48.936Z,6.12
2019-05-28T12:40:13.476Z,6.05
2019-05-28T12:42:42.863Z,7.28
2019-05-28T12:45:12.728Z,7.25
2019-05-28T12:47:42.038Z,6.37
2019-05-28T12:50:19.969Z,6.67
2019-05-28T12:52:47.083Z,6.25
2019-05-28T12:55:14.262Z,7.60
2019-05-28T12:57:43.515Z,5.50
2019-05-28T13:00:13.496Z,5.20
2019-05-28T13:02:42.849Z,4.53
2019-05-28T13:05:21.357Z,5.03
2019-05-28T13:08:06.777Z,5.17
2019-05-28T13:10:21.661Z,5.28
2019-05-28T13:12:51.478Z,4.70
2019-05-28T13:15:21.005Z,5.35
2019-05-28T13:17:50.323Z,6.05
2019-05-28T13:20:19.653Z,5.95
2019-05-28T13:22:48.909Z,5.40
2019-05-28T13:25:18.190Z,5.45
2019-05-28T13:27:47.474Z,6.53
2019-05-28T13:30:16.918Z,7.22
2019-05-28T13:32:46.675Z,5.15
2019-05-28T13:35:16.323Z,6.12
2019-05-28T13:37:45.602Z,7.25
2019-05-28T13:40:15.113Z,6.58
2019-05-28T13:42:44.521Z,6.65
2019-05-28T13:45:13.966Z,6.50
2019-05-28T13:47:43.234Z,5.90
2019-05-28T13:50:12.743Z,5.67
2019-05-28T13:52:42.055Z,6.55
2019-05-28T13:55:11.344Z,5.35
2019-05-28T13:57:44.094Z,5.08
2019-05-28T14:00:15.482Z,4.00
2019-05-28T14:02:46.273Z,4.40
2019-05-28T14:05:16.195Z,4.80
2019-05-28T14:07:45.465Z,5.05
2019-05-28T14:10:14.894Z,5.22
2019-05-28T14:12:44.191Z,4.45
2019-05-28T14:15:13.600Z,5.55
2019-05-28T14:17:42.901Z,6.30
2019-05-28T14:20:12.972Z,6.53
2019-05-28T14:22:42.356Z,6.83
2019-05-28T14:25:12.181Z,6.20
2019-05-28T14:27:41.388Z,7.70
2019-05-28T14:30:18.231Z,8.10
2019-05-28T14:32:47.592Z,6.83
2019-05-28T14:35:17.060Z,7.65
2019-05-28T14:37:47.476Z,6.67
2019-05-28T14:40:17.662Z,6.90
2019-05-28T14:42:46.841Z,7.17
2019-05-28T14:45:16.464Z,5.80
2019-05-28T14:47:45.823Z,6.62
2019-05-28T14:50:15.192Z,6.67
2019-05-28T14:52:44.432Z,7.80
2019-05-28T14:55:13.628Z,7.72
2019-05-28T14:57:42.904Z,8.60
2019-05-28T15:00:13.895Z,8.30
2019-05-28T15:02:43.285Z,8.25
2019-05-28T15:05:12.543Z,8.20
2019-05-28T15:07:41.808Z,8.53
2019-05-28T15:10:14.528Z,7.85
2019-05-28T15:12:43.789Z,8.38
2019-05-28T15:15:13.824Z,8.70
2019-05-28T15:17:43.111Z,8.80
2019-05-28T15:20:12.577Z,7.28
2019-05-28T15:22:43.110Z,5.22
2019-05-28T15:25:12.346Z,7.80
2019-05-28T15:27:41.687Z,6.83
2019-05-28T15:30:11.684Z,5.28
2019-05-28T15:32:40.998Z,5.03
2019-05-28T15:35:12.235Z,4.08
2019-05-28T15:37:41.524Z,4.05
2019-05-28T15:40:12.171Z,3.55
2019-05-28T15:42:41.441Z,4.03
2019-05-28T15:45:11.199Z,4.10
2019-05-28T15:47:44.436Z,3.80
2019-05-28T15:50:12.089Z,3.75
2019-05-28T15:52:41.355Z,4.60
2019-05-28T15:55:10.628Z,7.33
2019-05-28T15:57:39.939Z,8.63
2019-05-28T16:00:18.077Z,5.37
2019-05-28T16:02:47.346Z,4.65
2019-05-28T16:05:18.832Z,4.65
2019-05-28T16:07:49.101Z,5.72
2019-05-28T16:10:18.375Z,4.90
2019-05-28T16:12:49.401Z,4.03
2019-05-28T16:15:19.053Z,4.62
2019-05-28T16:17:48.385Z,5.92
2019-05-28T16:20:17.600Z,7.72
2019-05-28T16:22:46.885Z,5.10
2019-05-28T16:25:16.178Z,5.10
2019-05-28T16:27:45.446Z,4.72
2019-05-28T16:30:14.628Z,5.97
2019-05-28T16:32:44.005Z,6.62
2019-05-28T16:35:13.263Z,7.25
2019-05-28T16:37:42.722Z,7.47
2019-05-28T16:40:15.865Z,7.67
2019-05-28T16:42:42.905Z,7.15
2019-05-28T16:45:12.202Z,7.12
2019-05-28T16:47:41.532Z,7.25
2019-05-28T16:50:13.475Z,7.53
2019-05-28T16:52:43.860Z,7.75
2019-05-28T16:55:14.697Z,7.70
2019-05-28T16:57:44.045Z,7.10
2019-05-28T17:00:13.297Z,8.28
2019-05-28T17:02:42.622Z,7.37
2019-05-28T17:05:12.043Z,7.40
2019-05-28T17:07:41.358Z,7.60
2019-05-28T17:10:10.661Z,8.03
2019-05-28T17:12:44.893Z,7.85
2019-05-28T17:15:15.278Z,7.33
2019-05-28T17:17:44.589Z,7.58
2019-05-28T17:20:13.966Z,5.72
2019-05-28T17:22:43.235Z,5.67
2019-05-28T17:25:13.338Z,6.12
2019-05-28T17:27:42.636Z,5.65
2019-05-28T17:30:20.683Z,5.58
2019-05-28T17:32:42.936Z,6.00
2019-05-28T17:35:12.575Z,5.40
2019-05-28T17:37:41.833Z,5.20
2019-05-28T17:40:11.584Z,5.83
2019-05-28T17:42:41.070Z,5.85
2019-05-28T17:45:10.356Z,5.87
2019-05-28T17:47:43.889Z,6.25
2019-05-28T17:50:10.609Z,7.05
2019-05-28T17:52:39.951Z,7.30
2019-05-28T17:55:10.224Z,6.70
2019-05-28T17:57:39.544Z,6.65
2019-05-28T18:00:08.936Z,6.53
2019-05-28T18:02:38.134Z,6.08
2019-05-28T18:05:07.344Z,6.37
2019-05-28T18:07:38.273Z,6.10
2019-05-28T18:10:09.592Z,5.97
2019-05-28T18:12:38.860Z,6.40
2019-05-28T18:15:08.411Z,6.17
2019-05-28T18:17:37.676Z,6.85
2019-05-28T18:20:08.088Z,6.33
2019-05-28T18:22:37.389Z,6.00
2019-05-28T18:25:08.263Z,5.92
2019-05-28T18:27:37.581Z,6.40
2019-05-28T18:30:08.838Z,5.50
2019-05-28T18:32:38.358Z,6.35
2019-05-28T18:35:08.832Z,5.83
2019-05-28T18:37:39.483Z,6.37
2019-05-28T18:40:09.816Z,6.40
2019-05-28T18:42:39.115Z,6.60
2019-05-28T18:45:08.602Z,6.47
2019-05-28T18:47:38.677Z,6.08
2019-05-28T18:50:08.635Z,6.55
2019-05-28T18:52:38.461Z,5.95
2019-05-28T18:55:08.854Z,6.65
2019-05-28T18:57:38.137Z,6.00
2019-05-28T19:00:08.590Z,5.60
2019-05-28T19:02:39.471Z,5.75
2019-05-28T19:05:11.857Z,5.60
2019-05-28T19:07:41.321Z,5.67
2019-05-28T19:10:10.655Z,4.90
2019-05-28T19:12:39.870Z,5.60
2019-05-28T19:15:09.140Z,5.45
2019-05-28T19:17:38.588Z,5.30
2019-05-28T19:20:09.048Z,6.08
2019-05-28T19:22:38.673Z,5.15
2019-05-28T19:25:09.983Z,5.60
2019-05-28T19:27:39.273Z,5.10
2019-05-28T19:30:09.212Z,4.50
2019-05-28T19:32:39.354Z,4.65
2019-05-28T19:35:08.987Z,4.10
2019-05-28T19:37:38.328Z,4.20
2019-05-28T19:40:09.144Z,4.17
2019-05-28T19:42:38.396Z,5.20
2019-05-28T19:45:07.679Z,4.03
2019-05-28T19:47:36.891Z,4.75
2019-05-28T19:50:09.238Z,4.45
2019-05-28T19:52:38.531Z,4.20
2019-05-28T19:55:07.755Z,3.80
2019-05-28T19:57:36.905Z,4.20
2019-05-28T20:00:09.357Z,3.90
2019-05-28T20:02:38.901Z,4.20
2019-05-28T20:05:08.342Z,4.40
2019-05-28T20:07:37.658Z,3.40
2019-05-28T20:10:07.442Z,3.60
2019-05-28T20:12:36.749Z,4.00
2019-05-28T20:15:10.295Z,3.80
2019-05-28T20:17:39.505Z,3.90
2019-05-28T20:20:09.004Z,4.05
2019-05-28T20:22:38.224Z,3.87
2019-05-28T20:25:08.534Z,3.80
2019-05-28T20:27:37.686Z,3.85
2019-05-28T20:30:07.275Z,3.50
2019-05-28T20:32:37.568Z,3.65
2019-05-28T20:35:09.648Z,3.33
2019-05-28T20:37:40.093Z,3.30
2019-05-28T20:40:10.263Z,4.03
2019-05-28T20:42:40.176Z,3.60
2019-05-28T20:45:11.375Z,3.02
2019-05-28T20:47:40.423Z,2.85
2019-05-28T20:50:09.603Z,3.22
2019-05-28T20:52:38.763Z,3.27
2019-05-28T20:55:08.186Z,3.37
2019-05-28T20:57:37.362Z,4.37
2019-05-28T21:00:09.938Z,3.60
2019-05-28T21:02:39.324Z,3.70
2019-05-28T21:05:08.524Z,3.27
2019-05-28T21:07:37.677Z,3.25
2019-05-28T21:10:07.272Z,3.62
2019-05-28T21:12:43.660Z,3.30
2019-05-28T21:15:07.845Z,3.30
2019-05-28T21:17:36.995Z,2.72
2019-05-28T21:20:09.390Z,3.22
2019-05-28T21:22:38.563Z,3.77
2019-05-28T21:25:08.580Z,3.12
2019-05-28T21:27:37.796Z,4.75
2019-05-28T21:30:07.185Z,3.98
2019-05-28T21:32:36.497Z,3.80
2019-05-28T21:35:06.063Z,3.45
2019-05-28T21:37:35.305Z,4.17
2019-05-28T21:40:05.678Z,4.20
2019-05-28T21:42:35.170Z,3.77
2019-05-28T21:45:05.888Z,4.25
2019-05-28T21:47:35.074Z,4.42
2019-05-28T21:50:09.063Z,4.87
2019-05-28T21:52:38.233Z,4.92
2019-05-28T21:55:07.661Z,5.42
2019-05-28T21:57:37.953Z,5.83
2019-05-28T22:00:14.351Z,5.28
2019-05-28T22:02:45.310Z,6.00
2019-05-28T22:05:14.529Z,6.78
2019-05-28T22:07:43.838Z,5.92
2019-05-28T22:10:14.091Z,6.65
2019-05-28T22:12:43.289Z,5.92
2019-05-28T22:15:12.861Z,5.28
2019-05-28T22:17:42.087Z,6.45
2019-05-28T22:20:11.254Z,5.87
2019-05-28T22:22:40.395Z,7.00
2019-05-28T22:25:09.675Z,6.47
2019-05-28T22:27:38.863Z,5.60
2019-05-28T22:30:09.429Z,5.90
2019-05-28T22:32:39.903Z,6.70
2019-05-28T22:35:09.130Z,6.53
2019-05-28T22:37:38.271Z,6.45
2019-05-28T22:40:10.401Z,6.60
2019-05-28T22:42:39.609Z,7.23
2019-05-28T22:45:08.845Z,6.92
2019-05-28T22:47:38.077Z,7.50
2019-05-28T22:50:22.111Z,7.67
2019-05-28T22:52:41.056Z,8.73
2019-05-28T22:55:10.221Z,7.92
2019-05-28T22:57:39.375Z,7.37
2019-05-28T23:00:08.883Z,7.95
2019-05-28T23:02:38.151Z,7.35
2019-05-28T23:05:07.411Z,6.85
2019-05-28T23:07:36.657Z,7.70
2019-05-28T23:10:06.157Z,7.15
2019-05-28T23:12:35.381Z,7.37
2019-05-28T23:15:08.025Z,7.53
2019-05-28T23:17:37.564Z,8.38
2019-05-28T23:20:08.924Z,8.30
2019-05-28T23:22:38.346Z,7.42
2019-05-28T23:25:09.716Z,7.10
2019-05-28T23:27:39.075Z,8.78
2019-05-28T23:30:21.410Z,7.70
2019-05-28T23:32:39.382Z,7.20
2019-05-28T23:35:08.845Z,8.43
2019-05-28T23:37:38.178Z,8.35
2019-05-28T23:40:07.630Z,8.05
2019-05-28T23:42:36.838Z,8.60
2019-05-28T23:45:07.508Z,9.20
2019-05-28T23:47:36.891Z,9.98
2019-05-28T23:50:08.423Z,10.38
2019-05-28T23:52:38.158Z,11.20
2019-05-28T23:55:07.713Z,10.55
2019-05-28T23:57:37.063Z,10.35
